sensor_id;sensor_type;location;lat;lon;timestamp;P1;durP1;ratioP1;P2;durP2;ratioP2
14903;SDS011;7543;53.148;8.234;2023-03-14T00:00:21;13.00;;;2.70;;
14903;SDS011;7543;53.148;8.234;2023-03-14T00:02:51;8.33;;;2.17;;
14903;SDS011;7543;53.148;8.234;2023-03-14T00:05:20;8.60;;;2.27;;
14903;SDS011;7543;53.148;8.234;2023-03-14T00:07:48;8.30;;;2.87;;
14903;SDS011;7543;53.148;8.234;2023-03-14T00:10:16;12.60;;;2.73;;
14903;SDS011;7543;53.148;8.234;2023-03-14T00:12:45;14.40;;;2.70;;
14903;SDS011;7543;53.148;8.234;2023-03-14T00:15:13;7.90;;;2.53;;
14903;SDS011;7543;53.148;8.234;2023-03-14T00:17:43;11.30;;;3.03;;
14903;SDS011;7543;53.148;8.234;2023-03-14T00:20:12;9.50;;;2.50;;
14903;SDS011;7543;53.148;8.234;2023-03-14T00:22:41;10.60;;;2.60;;
14903;SDS011;7543;53.148;8.234;2023-03-14T00:25:10;7.43;;;1.90;;
14903;SDS011;7543;53.148;8.234;2023-03-14T00:27:39;11.90;;;2.73;;
14903;SDS011;7543;53.148;8.234;2023-03-14T00:30:07;10.40;;;2.67;;
14903;SDS011;7543;53.148;8.234;2023-03-14T00:32:36;9.70;;;2.27;;
14903;SDS011;7543;53.148;8.234;2023-03-14T00:35:07;15.70;;;2.57;;
14903;SDS011;7543;53.148;8.234;2023-03-14T00:37:35;11.27;;;2.37;;
14903;SDS011;7543;53.148;8.234;2023-03-14T00:40:07;5.90;;;1.80;;
14903;SDS011;7543;53.148;8.234;2023-03-14T00:42:36;9.87;;;2.40;;
14903;SDS011;7543;53.148;8.234;2023-03-14T00:45:05;6.47;;;2.07;;
14903;SDS011;7543;53.148;8.234;2023-03-14T00:47:35;13.10;;;2.30;;
14903;SDS011;7543;53.148;8.234;2023-03-14T00:50:04;6.30;;;2.03;;
14903;SDS011;7543;53.148;8.234;2023-03-14T00:52:34;7.80;;;2.03;;
14903;SDS011;7543;53.148;8.234;2023-03-14T00:55:03;8.37;;;2.17;;
14903;SDS011;7543;53.148;8.234;2023-03-14T00:57:32;8.23;;;2.50;;
14903;SDS011;7543;53.148;8.234;2023-03-14T01:00:00;6.93;;;1.93;;
14903;SDS011;7543;53.148;8.234;2023-03-14T01:02:31;5.77;;;1.97;;
14903;SDS011;7543;53.148;8.234;2023-03-14T01:04:59;4.57;;;2.00;;
14903;SDS011;7543;53.148;8.234;2023-03-14T01:07:27;6.03;;;2.00;;
14903;SDS011;7543;53.148;8.234;2023-03-14T01:09:57;7.73;;;1.97;;
14903;SDS011;7543;53.148;8.234;2023-03-14T01:12:27;6.27;;;1.70;;
14903;SDS011;7543;53.148;8.234;2023-03-14T01:14:55;9.50;;;1.90;;
14903;SDS011;7543;53.148;8.234;2023-03-14T01:17:24;4.43;;;1.70;;
14903;SDS011;7543;53.148;8.234;2023-03-14T01:19:53;3.37;;;1.50;;
14903;SDS011;7543;53.148;8.234;2023-03-14T01:22:21;4.87;;;1.90;;
14903;SDS011;7543;53.148;8.234;2023-03-14T01:24:49;8.10;;;1.93;;
14903;SDS011;7543;53.148;8.234;2023-03-14T01:27:19;7.97;;;2.00;;
14903;SDS011;7543;53.148;8.234;2023-03-14T01:29:47;4.33;;;1.90;;
14903;SDS011;7543;53.148;8.234;2023-03-14T01:32:16;6.23;;;2.07;;
14903;SDS011;7543;53.148;8.234;2023-03-14T01:34:45;3.23;;;1.60;;
14903;SDS011;7543;53.148;8.234;2023-03-14T01:37:13;2.47;;;1.50;;
14903;SDS011;7543;53.148;8.234;2023-03-14T01:39:42;5.10;;;1.90;;
14903;SDS011;7543;53.148;8.234;2023-03-14T01:42:10;4.10;;;1.60;;
14903;SDS011;7543;53.148;8.234;2023-03-14T01:44:51;3.90;;;2.00;;
14903;SDS011;7543;53.148;8.234;2023-03-14T01:47:21;3.40;;;1.70;;
14903;SDS011;7543;53.148;8.234;2023-03-14T01:49:50;4.40;;;2.03;;
14903;SDS011;7543;53.148;8.234;2023-03-14T01:52:22;5.83;;;2.13;;
14903;SDS011;7543;53.148;8.234;2023-03-14T01:54:54;4.10;;;2.10;;
14903;SDS011;7543;53.148;8.234;2023-03-14T01:57:23;4.80;;;1.73;;
14903;SDS011;7543;53.148;8.234;2023-03-14T01:59:55;6.90;;;2.10;;
14903;SDS011;7543;53.148;8.234;2023-03-14T02:02:26;6.00;;;2.00;;
14903;SDS011;7543;53.148;8.234;2023-03-14T02:04:55;4.87;;;2.30;;
14903;SDS011;7543;53.148;8.234;2023-03-14T02:07:30;3.17;;;1.90;;
14903;SDS011;7543;53.148;8.234;2023-03-14T02:10:24;4.43;;;1.67;;
14903;SDS011;7543;53.148;8.234;2023-03-14T02:12:55;6.10;;;1.80;;
14903;SDS011;7543;53.148;8.234;2023-03-14T02:15:39;6.17;;;1.93;;
14903;SDS011;7543;53.148;8.234;2023-03-14T02:18:37;7.67;;;1.83;;
14903;SDS011;7543;53.148;8.234;2023-03-14T02:21:37;4.93;;;1.93;;
14903;SDS011;7543;53.148;8.234;2023-03-14T02:24:09;6.60;;;2.07;;
14903;SDS011;7543;53.148;8.234;2023-03-14T02:27:03;6.87;;;1.70;;
14903;SDS011;7543;53.148;8.234;2023-03-14T02:29:33;4.23;;;1.50;;
14903;SDS011;7543;53.148;8.234;2023-03-14T02:32:04;4.33;;;1.80;;
14903;SDS011;7543;53.148;8.234;2023-03-14T02:34:33;5.43;;;2.07;;
14903;SDS011;7543;53.148;8.234;2023-03-14T02:37:03;2.70;;;1.70;;
14903;SDS011;7543;53.148;8.234;2023-03-14T02:39:35;4.60;;;1.77;;
14903;SDS011;7543;53.148;8.234;2023-03-14T02:42:06;4.67;;;1.77;;
14903;SDS011;7543;53.148;8.234;2023-03-14T02:44:34;3.77;;;1.27;;
14903;SDS011;7543;53.148;8.234;2023-03-14T02:47:03;2.63;;;1.10;;
14903;SDS011;7543;53.148;8.234;2023-03-14T02:49:33;4.27;;;0.80;;
14903;SDS011;7543;53.148;8.234;2023-03-14T02:52:02;3.27;;;1.20;;
14903;SDS011;7543;53.148;8.234;2023-03-14T02:54:31;2.50;;;0.97;;
14903;SDS011;7543;53.148;8.234;2023-03-14T02:56:59;3.33;;;0.80;;
14903;SDS011;7543;53.148;8.234;2023-03-14T02:59:29;2.80;;;0.73;;
14903;SDS011;7543;53.148;8.234;2023-03-14T03:02:01;3.80;;;0.93;;
14903;SDS011;7543;53.148;8.234;2023-03-14T03:04:32;2.27;;;0.90;;
14903;SDS011;7543;53.148;8.234;2023-03-14T03:07:00;1.53;;;0.70;;
14903;SDS011;7543;53.148;8.234;2023-03-14T03:09:28;1.00;;;0.70;;
14903;SDS011;7543;53.148;8.234;2023-03-14T03:11:57;2.03;;;0.63;;
14903;SDS011;7543;53.148;8.234;2023-03-14T03:14:29;2.23;;;1.00;;
14903;SDS011;7543;53.148;8.234;2023-03-14T03:17:00;3.37;;;0.97;;
14903;SDS011;7543;53.148;8.234;2023-03-14T03:19:28;2.20;;;0.70;;
14903;SDS011;7543;53.148;8.234;2023-03-14T03:21:57;3.43;;;0.87;;
14903;SDS011;7543;53.148;8.234;2023-03-14T03:24:25;1.50;;;0.90;;
14903;SDS011;7543;53.148;8.234;2023-03-14T03:26:55;4.80;;;0.70;;
14903;SDS011;7543;53.148;8.234;2023-03-14T03:29:23;2.70;;;0.73;;
14903;SDS011;7543;53.148;8.234;2023-03-14T03:31:54;2.03;;;0.93;;
14903;SDS011;7543;53.148;8.234;2023-03-14T03:34:22;3.10;;;0.87;;
14903;SDS011;7543;53.148;8.234;2023-03-14T03:36:55;5.40;;;1.00;;
14903;SDS011;7543;53.148;8.234;2023-03-14T03:39:24;2.53;;;0.90;;
14903;SDS011;7543;53.148;8.234;2023-03-14T03:41:52;5.90;;;0.90;;
14903;SDS011;7543;53.148;8.234;2023-03-14T03:44:21;2.57;;;0.60;;
14903;SDS011;7543;53.148;8.234;2023-03-14T03:46:49;3.03;;;0.83;;
14903;SDS011;7543;53.148;8.234;2023-03-14T03:49:20;2.33;;;0.90;;
14903;SDS011;7543;53.148;8.234;2023-03-14T03:51:48;3.03;;;0.80;;
14903;SDS011;7543;53.148;8.234;2023-03-14T03:54:17;4.97;;;1.17;;
14903;SDS011;7543;53.148;8.234;2023-03-14T03:56:45;1.93;;;1.00;;
14903;SDS011;7543;53.148;8.234;2023-03-14T03:59:14;2.97;;;1.10;;
14903;SDS011;7543;53.148;8.234;2023-03-14T04:01:42;2.70;;;1.03;;
14903;SDS011;7543;53.148;8.234;2023-03-14T04:04:10;3.97;;;1.20;;
14903;SDS011;7543;53.148;8.234;2023-03-14T04:06:40;2.60;;;1.30;;
14903;SDS011;7543;53.148;8.234;2023-03-14T04:09:09;3.53;;;1.33;;
14903;SDS011;7543;53.148;8.234;2023-03-14T04:11:43;2.83;;;1.23;;
14903;SDS011;7543;53.148;8.234;2023-03-14T04:14:35;2.17;;;1.50;;
14903;SDS011;7543;53.148;8.234;2023-03-14T04:17:15;4.77;;;1.73;;
14903;SDS011;7543;53.148;8.234;2023-03-14T04:19:43;2.37;;;1.23;;
14903;SDS011;7543;53.148;8.234;2023-03-14T04:22:13;2.93;;;1.57;;
14903;SDS011;7543;53.148;8.234;2023-03-14T04:24:49;3.87;;;1.43;;
14903;SDS011;7543;53.148;8.234;2023-03-14T04:27:17;4.47;;;1.43;;
14903;SDS011;7543;53.148;8.234;2023-03-14T04:29:47;3.90;;;1.50;;
14903;SDS011;7543;53.148;8.234;2023-03-14T04:32:19;2.63;;;1.10;;
14903;SDS011;7543;53.148;8.234;2023-03-14T04:34:48;3.13;;;1.50;;
14903;SDS011;7543;53.148;8.234;2023-03-14T04:37:18;4.03;;;1.63;;
14903;SDS011;7543;53.148;8.234;2023-03-14T04:39:47;4.00;;;1.30;;
14903;SDS011;7543;53.148;8.234;2023-03-14T04:42:19;5.20;;;1.10;;
14903;SDS011;7543;53.148;8.234;2023-03-14T04:44:48;3.03;;;1.10;;
14903;SDS011;7543;53.148;8.234;2023-03-14T04:47:18;2.43;;;1.20;;
14903;SDS011;7543;53.148;8.234;2023-03-14T04:49:49;2.00;;;0.93;;
14903;SDS011;7543;53.148;8.234;2023-03-14T04:52:18;2.97;;;0.80;;
14903;SDS011;7543;53.148;8.234;2023-03-14T04:54:47;5.00;;;1.27;;
14903;SDS011;7543;53.148;8.234;2023-03-14T04:57:17;1.83;;;0.83;;
14903;SDS011;7543;53.148;8.234;2023-03-14T04:59:46;3.20;;;1.13;;
14903;SDS011;7543;53.148;8.234;2023-03-14T05:02:34;4.07;;;1.23;;
14903;SDS011;7543;53.148;8.234;2023-03-14T05:05:22;2.87;;;1.10;;
14903;SDS011;7543;53.148;8.234;2023-03-14T05:08:07;3.30;;;1.10;;
14903;SDS011;7543;53.148;8.234;2023-03-14T05:10:56;1.90;;;0.87;;
14903;SDS011;7543;53.148;8.234;2023-03-14T05:13:43;3.47;;;1.10;;
14903;SDS011;7543;53.148;8.234;2023-03-14T05:16:30;3.67;;;1.20;;
14903;SDS011;7543;53.148;8.234;2023-03-14T05:19:15;1.33;;;0.90;;
14903;SDS011;7543;53.148;8.234;2023-03-14T05:22:03;3.03;;;1.20;;
14903;SDS011;7543;53.148;8.234;2023-03-14T05:24:55;3.70;;;1.20;;
14903;SDS011;7543;53.148;8.234;2023-03-14T05:27:44;5.63;;;1.40;;
14903;SDS011;7543;53.148;8.234;2023-03-14T05:30:31;3.50;;;1.27;;
14903;SDS011;7543;53.148;8.234;2023-03-14T05:33:00;5.77;;;1.43;;
14903;SDS011;7543;53.148;8.234;2023-03-14T05:35:41;3.23;;;1.30;;
14903;SDS011;7543;53.148;8.234;2023-03-14T05:38:26;3.20;;;1.40;;
14903;SDS011;7543;53.148;8.234;2023-03-14T05:41:05;5.53;;;1.50;;
14903;SDS011;7543;53.148;8.234;2023-03-14T05:44:02;5.10;;;1.60;;
14903;SDS011;7543;53.148;8.234;2023-03-14T05:47:03;4.73;;;1.40;;
14903;SDS011;7543;53.148;8.234;2023-03-14T05:49:58;3.60;;;1.13;;
14903;SDS011;7543;53.148;8.234;2023-03-14T05:52:37;4.60;;;1.83;;
14903;SDS011;7543;53.148;8.234;2023-03-14T05:55:38;1.20;;;0.80;;
14903;SDS011;7543;53.148;8.234;2023-03-14T05:58:18;1.50;;;0.93;;
14903;SDS011;7543;53.148;8.234;2023-03-14T06:01:06;3.80;;;1.40;;
14903;SDS011;7543;53.148;8.234;2023-03-14T06:03:54;3.43;;;1.30;;
14903;SDS011;7543;53.148;8.234;2023-03-14T06:06:23;3.10;;;1.33;;
14903;SDS011;7543;53.148;8.234;2023-03-14T06:08:52;3.63;;;1.27;;
14903;SDS011;7543;53.148;8.234;2023-03-14T06:11:20;3.03;;;1.37;;
14903;SDS011;7543;53.148;8.234;2023-03-14T06:13:50;3.27;;;1.20;;
14903;SDS011;7543;53.148;8.234;2023-03-14T06:16:18;3.00;;;1.40;;
14903;SDS011;7543;53.148;8.234;2023-03-14T06:18:47;2.20;;;1.20;;
14903;SDS011;7543;53.148;8.234;2023-03-14T06:21:19;2.73;;;1.00;;
14903;SDS011;7543;53.148;8.234;2023-03-14T06:23:49;3.43;;;1.40;;
14903;SDS011;7543;53.148;8.234;2023-03-14T06:26:18;6.17;;;1.50;;
14903;SDS011;7543;53.148;8.234;2023-03-14T06:28:46;2.77;;;1.37;;
14903;SDS011;7543;53.148;8.234;2023-03-14T06:31:16;2.97;;;1.53;;
14903;SDS011;7543;53.148;8.234;2023-03-14T06:33:53;7.37;;;1.67;;
14903;SDS011;7543;53.148;8.234;2023-03-14T06:36:24;5.33;;;1.40;;
14903;SDS011;7543;53.148;8.234;2023-03-14T06:38:53;5.80;;;1.53;;
14903;SDS011;7543;53.148;8.234;2023-03-14T06:41:21;3.67;;;1.67;;
14903;SDS011;7543;53.148;8.234;2023-03-14T06:43:52;5.50;;;2.00;;
14903;SDS011;7543;53.148;8.234;2023-03-14T06:46:23;5.67;;;1.80;;
14903;SDS011;7543;53.148;8.234;2023-03-14T06:48:51;2.13;;;1.50;;
14903;SDS011;7543;53.148;8.234;2023-03-14T06:51:20;3.00;;;1.67;;
14903;SDS011;7543;53.148;8.234;2023-03-14T06:53:49;5.63;;;1.73;;
14903;SDS011;7543;53.148;8.234;2023-03-14T06:56:21;2.80;;;1.30;;
14903;SDS011;7543;53.148;8.234;2023-03-14T06:58:50;5.30;;;1.67;;
14903;SDS011;7543;53.148;8.234;2023-03-14T07:01:23;6.33;;;1.47;;
14903;SDS011;7543;53.148;8.234;2023-03-14T07:03:53;3.80;;;1.50;;
14903;SDS011;7543;53.148;8.234;2023-03-14T07:06:22;6.23;;;1.63;;
14903;SDS011;7543;53.148;8.234;2023-03-14T07:08:51;9.17;;;1.37;;
14903;SDS011;7543;53.148;8.234;2023-03-14T07:11:20;3.27;;;1.40;;
14903;SDS011;7543;53.148;8.234;2023-03-14T07:13:49;5.47;;;1.13;;
14903;SDS011;7543;53.148;8.234;2023-03-14T07:16:17;4.00;;;1.20;;
14903;SDS011;7543;53.148;8.234;2023-03-14T07:18:47;6.50;;;1.47;;
14903;SDS011;7543;53.148;8.234;2023-03-14T07:21:17;5.43;;;1.33;;
14903;SDS011;7543;53.148;8.234;2023-03-14T07:23:45;4.23;;;1.30;;
14903;SDS011;7543;53.148;8.234;2023-03-14T07:26:15;4.77;;;1.50;;
14903;SDS011;7543;53.148;8.234;2023-03-14T07:28:48;7.97;;;1.67;;
14903;SDS011;7543;53.148;8.234;2023-03-14T07:31:19;5.17;;;1.67;;
14903;SDS011;7543;53.148;8.234;2023-03-14T07:33:50;5.47;;;1.50;;
14903;SDS011;7543;53.148;8.234;2023-03-14T07:36:19;3.67;;;1.20;;
14903;SDS011;7543;53.148;8.234;2023-03-14T07:38:48;6.50;;;1.40;;
14903;SDS011;7543;53.148;8.234;2023-03-14T07:41:39;3.70;;;1.40;;
14903;SDS011;7543;53.148;8.234;2023-03-14T07:44:25;4.77;;;1.47;;
14903;SDS011;7543;53.148;8.234;2023-03-14T07:46:54;5.33;;;1.60;;
14903;SDS011;7543;53.148;8.234;2023-03-14T07:49:24;4.97;;;1.70;;
14903;SDS011;7543;53.148;8.234;2023-03-14T07:51:52;2.80;;;1.23;;
14903;SDS011;7543;53.148;8.234;2023-03-14T07:54:21;4.07;;;1.50;;
14903;SDS011;7543;53.148;8.234;2023-03-14T07:56:50;5.10;;;1.60;;
14903;SDS011;7543;53.148;8.234;2023-03-14T07:59:19;7.93;;;1.60;;
14903;SDS011;7543;53.148;8.234;2023-03-14T08:01:47;3.13;;;1.60;;
14903;SDS011;7543;53.148;8.234;2023-03-14T08:04:16;5.10;;;1.63;;
14903;SDS011;7543;53.148;8.234;2023-03-14T08:06:45;3.70;;;1.53;;
14903;SDS011;7543;53.148;8.234;2023-03-14T08:09:14;4.37;;;1.53;;
14903;SDS011;7543;53.148;8.234;2023-03-14T08:11:42;5.63;;;1.70;;
14903;SDS011;7543;53.148;8.234;2023-03-14T08:14:10;7.77;;;1.90;;
14903;SDS011;7543;53.148;8.234;2023-03-14T08:16:39;3.73;;;1.07;;
14903;SDS011;7543;53.148;8.234;2023-03-14T08:19:07;2.90;;;1.20;;
14903;SDS011;7543;53.148;8.234;2023-03-14T08:21:35;2.77;;;1.27;;
14903;SDS011;7543;53.148;8.234;2023-03-14T08:24:05;4.33;;;1.23;;
14903;SDS011;7543;53.148;8.234;2023-03-14T08:26:34;4.13;;;1.33;;
14903;SDS011;7543;53.148;8.234;2023-03-14T08:29:02;4.53;;;1.97;;
14903;SDS011;7543;53.148;8.234;2023-03-14T08:31:31;4.33;;;1.03;;
14903;SDS011;7543;53.148;8.234;2023-03-14T08:34:00;1.40;;;0.83;;
14903;SDS011;7543;53.148;8.234;2023-03-14T08:36:28;6.53;;;0.97;;
14903;SDS011;7543;53.148;8.234;2023-03-14T08:38:57;2.00;;;0.67;;
14903;SDS011;7543;53.148;8.234;2023-03-14T08:41:27;1.77;;;0.50;;
14903;SDS011;7543;53.148;8.234;2023-03-14T08:43:55;0.70;;;0.40;;
14903;SDS011;7543;53.148;8.234;2023-03-14T08:46:23;0.70;;;0.50;;
14903;SDS011;7543;53.148;8.234;2023-03-14T08:48:52;0.50;;;0.30;;
14903;SDS011;7543;53.148;8.234;2023-03-14T08:51:20;3.07;;;0.93;;
14903;SDS011;7543;53.148;8.234;2023-03-14T08:53:48;0.73;;;0.40;;
14903;SDS011;7543;53.148;8.234;2023-03-14T08:56:17;0.90;;;0.30;;
14903;SDS011;7543;53.148;8.234;2023-03-14T08:58:47;1.77;;;0.80;;
14903;SDS011;7543;53.148;8.234;2023-03-14T09:01:15;1.97;;;0.47;;
14903;SDS011;7543;53.148;8.234;2023-03-14T09:03:45;3.30;;;0.50;;
14903;SDS011;7543;53.148;8.234;2023-03-14T09:06:14;0.43;;;0.37;;
14903;SDS011;7543;53.148;8.234;2023-03-14T09:08:45;2.63;;;0.53;;
14903;SDS011;7543;53.148;8.234;2023-03-14T09:11:13;1.03;;;0.40;;
14903;SDS011;7543;53.148;8.234;2023-03-14T09:13:42;0.40;;;0.30;;
14903;SDS011;7543;53.148;8.234;2023-03-14T09:16:11;0.30;;;0.10;;
14903;SDS011;7543;53.148;8.234;2023-03-14T09:18:40;0.10;;;0.10;;
14903;SDS011;7543;53.148;8.234;2023-03-14T09:21:08;0.27;;;0.17;;
14903;SDS011;7543;53.148;8.234;2023-03-14T09:23:36;0.20;;;0.20;;
14903;SDS011;7543;53.148;8.234;2023-03-14T09:26:05;1.60;;;0.33;;
14903;SDS011;7543;53.148;8.234;2023-03-14T09:28:34;0.17;;;0.17;;
14903;SDS011;7543;53.148;8.234;2023-03-14T09:31:06;0.40;;;0.20;;
14903;SDS011;7543;53.148;8.234;2023-03-14T09:33:36;0.20;;;0.10;;
14903;SDS011;7543;53.148;8.234;2023-03-14T09:36:06;0.73;;;0.37;;
14903;SDS011;7543;53.148;8.234;2023-03-14T09:38:35;0.40;;;0.20;;
14903;SDS011;7543;53.148;8.234;2023-03-14T09:41:10;0.30;;;0.20;;
14903;SDS011;7543;53.148;8.234;2023-03-14T09:43:41;0.57;;;0.40;;
14903;SDS011;7543;53.148;8.234;2023-03-14T09:46:10;0.30;;;0.30;;
14903;SDS011;7543;53.148;8.234;2023-03-14T09:48:40;0.60;;;0.40;;
14903;SDS011;7543;53.148;8.234;2023-03-14T09:51:11;1.10;;;0.43;;
14903;SDS011;7543;53.148;8.234;2023-03-14T09:53:41;0.90;;;0.20;;
14903;SDS011;7543;53.148;8.234;2023-03-14T09:56:12;0.40;;;0.30;;
14903;SDS011;7543;53.148;8.234;2023-03-14T09:58:42;1.33;;;0.40;;
14903;SDS011;7543;53.148;8.234;2023-03-14T10:01:13;1.07;;;0.40;;
14903;SDS011;7543;53.148;8.234;2023-03-14T10:03:44;2.33;;;0.40;;
14903;SDS011;7543;53.148;8.234;2023-03-14T10:06:14;1.47;;;0.30;;
14903;SDS011;7543;53.148;8.234;2023-03-14T10:08:42;0.30;;;0.20;;
14903;SDS011;7543;53.148;8.234;2023-03-14T10:11:13;0.47;;;0.40;;
14903;SDS011;7543;53.148;8.234;2023-03-14T10:13:49;1.33;;;0.60;;
14903;SDS011;7543;53.148;8.234;2023-03-14T10:16:23;4.67;;;1.17;;
14903;SDS011;7543;53.148;8.234;2023-03-14T10:19:02;1.07;;;0.53;;
14903;SDS011;7543;53.148;8.234;2023-03-14T10:21:35;2.03;;;0.83;;
14903;SDS011;7543;53.148;8.234;2023-03-14T10:24:09;0.70;;;0.50;;
14903;SDS011;7543;53.148;8.234;2023-03-14T10:26:38;2.30;;;0.60;;
14903;SDS011;7543;53.148;8.234;2023-03-14T10:29:08;1.27;;;0.60;;
14903;SDS011;7543;53.148;8.234;2023-03-14T10:31:49;0.87;;;0.60;;
14903;SDS011;7543;53.148;8.234;2023-03-14T10:34:22;2.50;;;0.80;;
14903;SDS011;7543;53.148;8.234;2023-03-14T10:36:53;1.43;;;0.53;;
14903;SDS011;7543;53.148;8.234;2023-03-14T10:42:14;2.87;;;0.80;;
14903;SDS011;7543;53.148;8.234;2023-03-14T10:44:48;1.33;;;0.60;;
14903;SDS011;7543;53.148;8.234;2023-03-14T10:47:19;3.27;;;1.00;;
14903;SDS011;7543;53.148;8.234;2023-03-14T10:49:51;3.37;;;0.80;;
14903;SDS011;7543;53.148;8.234;2023-03-14T10:52:20;2.70;;;0.87;;
14903;SDS011;7543;53.148;8.234;2023-03-14T10:54:53;6.43;;;1.37;;
14903;SDS011;7543;53.148;8.234;2023-03-14T10:57:23;2.63;;;0.63;;
14903;SDS011;7543;53.148;8.234;2023-03-14T10:59:51;4.37;;;0.87;;
14903;SDS011;7543;53.148;8.234;2023-03-14T11:02:24;4.13;;;0.77;;
14903;SDS011;7543;53.148;8.234;2023-03-14T11:05:03;4.13;;;1.17;;
14903;SDS011;7543;53.148;8.234;2023-03-14T11:07:40;6.87;;;1.20;;
14903;SDS011;7543;53.148;8.234;2023-03-14T11:10:19;8.97;;;1.20;;
14903;SDS011;7543;53.148;8.234;2023-03-14T11:12:55;7.10;;;1.40;;
14903;SDS011;7543;53.148;8.234;2023-03-14T11:15:30;10.37;;;1.33;;
14903;SDS011;7543;53.148;8.234;2023-03-14T11:18:07;4.00;;;1.00;;
14903;SDS011;7543;53.148;8.234;2023-03-14T11:20:49;7.60;;;1.57;;
14903;SDS011;7543;53.148;8.234;2023-03-14T11:23:21;5.20;;;0.97;;
14903;SDS011;7543;53.148;8.234;2023-03-14T11:25:52;6.47;;;1.57;;
14903;SDS011;7543;53.148;8.234;2023-03-14T11:28:26;7.00;;;1.27;;
14903;SDS011;7543;53.148;8.234;2023-03-14T11:31:00;11.07;;;1.87;;
14903;SDS011;7543;53.148;8.234;2023-03-14T11:33:35;5.40;;;1.73;;
14903;SDS011;7543;53.148;8.234;2023-03-14T11:36:07;8.40;;;1.60;;
14903;SDS011;7543;53.148;8.234;2023-03-14T11:38:37;5.57;;;1.73;;
14903;SDS011;7543;53.148;8.234;2023-03-14T11:41:09;9.07;;;1.87;;
14903;SDS011;7543;53.148;8.234;2023-03-14T11:43:40;7.60;;;1.50;;
14903;SDS011;7543;53.148;8.234;2023-03-14T11:46:10;9.00;;;1.70;;
14903;SDS011;7543;53.148;8.234;2023-03-14T11:48:45;8.83;;;1.70;;
14903;SDS011;7543;53.148;8.234;2023-03-14T11:51:17;6.37;;;1.47;;
14903;SDS011;7543;53.148;8.234;2023-03-14T11:53:52;7.83;;;2.03;;
14903;SDS011;7543;53.148;8.234;2023-03-14T11:56:25;15.93;;;1.90;;
14903;SDS011;7543;53.148;8.234;2023-03-14T11:58:58;3.63;;;1.20;;
14903;SDS011;7543;53.148;8.234;2023-03-14T12:04:19;6.83;;;1.23;;
14903;SDS011;7543;53.148;8.234;2023-03-14T12:06:53;8.03;;;1.73;;
14903;SDS011;7543;53.148;8.234;2023-03-14T12:09:22;7.73;;;1.77;;
14903;SDS011;7543;53.148;8.234;2023-03-14T12:11:52;7.17;;;1.60;;
14903;SDS011;7543;53.148;8.234;2023-03-14T12:14:23;5.97;;;1.83;;
14903;SDS011;7543;53.148;8.234;2023-03-14T12:16:54;6.00;;;1.30;;
14903;SDS011;7543;53.148;8.234;2023-03-14T12:19:29;4.03;;;1.37;;
14903;SDS011;7543;53.148;8.234;2023-03-14T12:22:05;4.83;;;1.33;;
14903;SDS011;7543;53.148;8.234;2023-03-14T12:24:50;5.50;;;1.40;;
14903;SDS011;7543;53.148;8.234;2023-03-14T12:30:16;3.97;;;1.17;;
14903;SDS011;7543;53.148;8.234;2023-03-14T12:36:00;2.83;;;1.00;;
14903;SDS011;7543;53.148;8.234;2023-03-14T12:38:40;3.37;;;1.07;;
14903;SDS011;7543;53.148;8.234;2023-03-14T12:41:16;4.57;;;1.10;;
14903;SDS011;7543;53.148;8.234;2023-03-14T12:43:46;6.00;;;0.90;;
14903;SDS011;7543;53.148;8.234;2023-03-14T12:46:18;3.27;;;1.00;;
14903;SDS011;7543;53.148;8.234;2023-03-14T12:48:49;4.27;;;1.13;;
14903;SDS011;7543;53.148;8.234;2023-03-14T12:51:18;3.00;;;1.10;;
14903;SDS011;7543;53.148;8.234;2023-03-14T12:54:04;5.30;;;0.97;;
14903;SDS011;7543;53.148;8.234;2023-03-14T12:56:45;5.03;;;1.53;;
14903;SDS011;7543;53.148;8.234;2023-03-14T12:59:27;2.20;;;1.10;;
14903;SDS011;7543;53.148;8.234;2023-03-14T13:01:59;7.30;;;1.50;;
14903;SDS011;7543;53.148;8.234;2023-03-14T13:04:30;4.33;;;1.07;;
14903;SDS011;7543;53.148;8.234;2023-03-14T13:07:00;3.00;;;1.10;;
14903;SDS011;7543;53.148;8.234;2023-03-14T13:09:48;4.10;;;0.87;;
14903;SDS011;7543;53.148;8.234;2023-03-14T13:12:23;4.93;;;0.90;;
14903;SDS011;7543;53.148;8.234;2023-03-14T13:14:57;3.77;;;0.90;;
14903;SDS011;7543;53.148;8.234;2023-03-14T13:17:30;8.70;;;1.60;;
14903;SDS011;7543;53.148;8.234;2023-03-14T13:20:00;4.57;;;0.87;;
14903;SDS011;7543;53.148;8.234;2023-03-14T13:22:33;3.87;;;1.40;;
14903;SDS011;7543;53.148;8.234;2023-03-14T13:25:06;3.73;;;1.30;;
14903;SDS011;7543;53.148;8.234;2023-03-14T13:27:37;5.07;;;1.10;;
14903;SDS011;7543;53.148;8.234;2023-03-14T13:30:12;2.20;;;0.90;;
14903;SDS011;7543;53.148;8.234;2023-03-14T13:32:46;6.40;;;1.30;;
14903;SDS011;7543;53.148;8.234;2023-03-14T13:35:20;6.10;;;1.47;;
14903;SDS011;7543;53.148;8.234;2023-03-14T13:37:54;2.30;;;1.10;;
14903;SDS011;7543;53.148;8.234;2023-03-14T13:40:26;7.07;;;1.00;;
14903;SDS011;7543;53.148;8.234;2023-03-14T13:43:01;6.93;;;1.20;;
14903;SDS011;7543;53.148;8.234;2023-03-14T13:45:31;6.27;;;1.07;;
14903;SDS011;7543;53.148;8.234;2023-03-14T13:47:59;9.13;;;1.33;;
14903;SDS011;7543;53.148;8.234;2023-03-14T13:50:27;5.90;;;1.30;;
14903;SDS011;7543;53.148;8.234;2023-03-14T13:52:56;5.57;;;0.93;;
14903;SDS011;7543;53.148;8.234;2023-03-14T13:55:27;6.27;;;1.13;;
14903;SDS011;7543;53.148;8.234;2023-03-14T13:57:57;2.37;;;0.97;;
14903;SDS011;7543;53.148;8.234;2023-03-14T14:00:26;7.63;;;1.23;;
14903;SDS011;7543;53.148;8.234;2023-03-14T14:02:57;4.37;;;0.97;;
14903;SDS011;7543;53.148;8.234;2023-03-14T14:05:27;4.93;;;1.00;;
14903;SDS011;7543;53.148;8.234;2023-03-14T14:07:56;2.57;;;1.20;;
14903;SDS011;7543;53.148;8.234;2023-03-14T14:10:26;9.93;;;1.03;;
14903;SDS011;7543;53.148;8.234;2023-03-14T14:12:57;5.53;;;1.07;;
14903;SDS011;7543;53.148;8.234;2023-03-14T14:15:28;4.50;;;0.90;;
14903;SDS011;7543;53.148;8.234;2023-03-14T14:17:57;5.33;;;1.23;;
14903;SDS011;7543;53.148;8.234;2023-03-14T14:20:28;4.40;;;1.03;;
14903;SDS011;7543;53.148;8.234;2023-03-14T14:23:00;7.27;;;1.20;;
14903;SDS011;7543;53.148;8.234;2023-03-14T14:25:31;4.80;;;1.20;;
14903;SDS011;7543;53.148;8.234;2023-03-14T14:28:13;3.47;;;1.17;;
14903;SDS011;7543;53.148;8.234;2023-03-14T14:30:42;7.50;;;1.37;;
14903;SDS011;7543;53.148;8.234;2023-03-14T14:33:15;6.93;;;1.20;;
14903;SDS011;7543;53.148;8.234;2023-03-14T14:35:49;3.23;;;1.03;;
14903;SDS011;7543;53.148;8.234;2023-03-14T14:38:19;3.57;;;1.07;;
14903;SDS011;7543;53.148;8.234;2023-03-14T14:40:50;2.20;;;1.03;;
14903;SDS011;7543;53.148;8.234;2023-03-14T14:43:21;4.93;;;0.77;;
14903;SDS011;7543;53.148;8.234;2023-03-14T14:45:51;6.67;;;1.07;;
14903;SDS011;7543;53.148;8.234;2023-03-14T14:48:22;3.23;;;0.80;;
14903;SDS011;7543;53.148;8.234;2023-03-14T14:50:55;3.17;;;1.00;;
14903;SDS011;7543;53.148;8.234;2023-03-14T14:53:27;4.00;;;1.00;;
14903;SDS011;7543;53.148;8.234;2023-03-14T14:55:59;3.33;;;1.00;;
14903;SDS011;7543;53.148;8.234;2023-03-14T14:58:33;2.73;;;0.80;;
14903;SDS011;7543;53.148;8.234;2023-03-14T15:01:04;3.17;;;1.03;;
14903;SDS011;7543;53.148;8.234;2023-03-14T15:03:35;3.33;;;1.20;;
14903;SDS011;7543;53.148;8.234;2023-03-14T15:06:04;2.67;;;1.07;;
14903;SDS011;7543;53.148;8.234;2023-03-14T15:08:33;2.97;;;0.63;;
14903;SDS011;7543;53.148;8.234;2023-03-14T15:11:02;2.93;;;0.90;;
14903;SDS011;7543;53.148;8.234;2023-03-14T15:13:31;5.03;;;1.07;;
14903;SDS011;7543;53.148;8.234;2023-03-14T15:16:00;2.10;;;0.93;;
14903;SDS011;7543;53.148;8.234;2023-03-14T15:18:29;3.50;;;1.27;;
14903;SDS011;7543;53.148;8.234;2023-03-14T15:20:57;5.53;;;1.17;;
14903;SDS011;7543;53.148;8.234;2023-03-14T15:23:27;5.53;;;0.83;;
14903;SDS011;7543;53.148;8.234;2023-03-14T15:25:55;3.90;;;1.00;;
14903;SDS011;7543;53.148;8.234;2023-03-14T15:28:25;4.37;;;1.07;;
14903;SDS011;7543;53.148;8.234;2023-03-14T15:30:55;6.87;;;1.20;;
14903;SDS011;7543;53.148;8.234;2023-03-14T15:33:24;4.50;;;1.00;;
14903;SDS011;7543;53.148;8.234;2023-03-14T15:35:54;5.30;;;0.90;;
14903;SDS011;7543;53.148;8.234;2023-03-14T15:38:23;1.03;;;0.53;;
14903;SDS011;7543;53.148;8.234;2023-03-14T15:40:52;2.47;;;0.80;;